< < Back
Terminal Aerodrome Forecast


Current Version              Previous Versions:   1  2  3  4  5  6  7  8  9  

Terminal Aerodrome Forecast

823
FTUS42 KJAX 281700
TAFJAX
TAF
KJAX 281721Z 2818/2918 11006KT P6SM FEW035
     FM290100 VRB03KT P6SM SKC
     FM291600 13006KT P6SM SCT035=



Latest METAR

793
SAUS80 KWBC 290100 CCA
MTRJAX
METAR KJAX 290056Z 11004KT 10SM CLR 26/21 A3000 RMK AO2 SLP159
T02560211


USA.gov is the U.S. government's official web portal to all federal, state and local government web resources and services.